KZ-0010 weather

Iliysk North Airport
Iliysk, Almaty Region, Kazakhstan

Public forecast

Using degrees Celsius for public forecast. Weather courtesy of forecast.io.

METAR (pilot weather report)

Closest report is Almaty Airport, 39.0 nm (72.3 km) S. Retrieved 2019/03/19 20:30 UTC (15 minutes ago):

UAAA 192030Z 17002MPS 5000 BR FU FEW100 M00/M03 Q1019 R88/65D NOSIG

TAF (pilot weather forecast)

Closest forecast is Almaty Airport, 39.0 nm (72.3 km) S. Retrieved 2019/03/19 18:00 UTC (3 hours ago):

TAF UAAA 191700Z 1918/2018 26004MPS 3100 BR FU SCT050 BKN100 TX12/2008Z TNM03/2001Z TEMPO 1918/2003 22003MPS 1000 BECMG 2004/2005 04004MPS 9999 NSW TEMPO 2004/2012 34003MPS TEMPO 2013/2018 20003MPS 1200 BR FU